Time;durP1;ratioP1;P1;durP2;ratioP2;P2;SDS_P1;SDS_P2;PMS_P1;PMS_P2;Temp;Humidity;BMP_temperature;BMP_pressure;BME280_temperature;BME280_humidity;BME280_pressure;Samples;Min_cycle;Max_cycle;Signal;HPM_P1;HPM_P2
2022/06/23 00:01:40;;;;;;;3.10;2.10;;;;;;;23.46;39.66;96614.88;5068626;28;20203;-71
2022/06/23 00:04:12;;;;;;;5.77;2.10;;;;;;;23.52;39.23;96611.59;5070028;28;20648;-70
2022/06/23 00:06:54;;;;;;;4.60;2.20;;;;;;;23.53;39.79;96615.91;5068412;28;20595;-72
2022/06/23 00:09:38;;;;;;;7.30;2.50;;;;;;;23.60;39.27;96613.44;5069099;28;20285;-73
2022/06/23 00:12:29;;;;;;;5.87;2.60;;;;;;;23.57;39.72;96614.59;5069458;28;20641;-71
2022/06/23 00:15:17;;;;;;;2.50;1.90;;;;;;;23.66;38.99;96613.63;5068233;28;20225;-71
2022/06/23 00:17:59;;;;;;;6.23;2.10;;;;;;;23.79;39.15;96610.53;5069502;28;20294;-70
2022/06/23 00:20:45;;;;;;;4.03;2.30;;;;;;;23.72;38.86;96607.69;5069471;28;20196;-71
2022/06/23 00:23:18;;;;;;;4.73;1.93;;;;;;;23.69;38.90;96596.63;5067973;28;20233;-71
2022/06/23 00:25:52;;;;;;;5.57;2.03;;;;;;;23.79;39.21;96613.16;5069101;28;20208;-70
2022/06/23 00:28:27;;;;;;;3.73;1.90;;;;;;;23.77;38.71;96615.97;5067713;28;20203;-71
2022/06/23 00:30:58;;;;;;;4.67;2.10;;;;;;;23.72;38.76;96618.28;5068969;28;20196;-71
2022/06/23 00:33:30;;;;;;;3.53;2.00;;;;;;;23.62;38.03;96612.28;5068948;28;20672;-71
2022/06/23 00:35:58;;;;;;;2.60;2.10;;;;;;;23.54;38.62;96609.63;5067799;28;20201;-71
2022/06/23 00:38:39;;;;;;;3.30;1.83;;;;;;;23.53;37.83;96612.44;5069364;28;20203;-71
2022/06/23 00:41:16;;;;;;;2.10;1.70;;;;;;;23.43;37.80;96604.66;5067916;28;20194;-71
2022/06/23 00:43:46;;;;;;;3.90;1.90;;;;;;;23.48;37.30;96598.88;5068976;28;20285;-70
2022/06/23 00:46:31;;;;;;;6.93;1.70;;;;;;;23.37;37.58;96599.97;5068159;28;20683;-71
2022/06/23 00:49:13;;;;;;;4.00;1.80;;;;;;;23.44;37.57;96603.66;5067310;28;20228;-71
2022/06/23 00:51:53;;;;;;;5.23;1.77;;;;;;;23.41;37.15;96606.63;5069122;28;20593;-71
2022/06/23 00:54:43;;;;;;;2.33;1.90;;;;;;;23.50;37.11;96607.47;5067404;28;20233;-71
2022/06/23 00:57:35;;;;;;;2.03;1.70;;;;;;;23.56;37.17;96602.38;5067699;28;20200;-71
2022/06/23 01:00:21;;;;;;;2.60;1.73;;;;;;;23.67;36.64;96598.59;5069134;28;20259;-71
2022/06/23 01:02:57;;;;;;;3.20;1.70;;;;;;;23.68;36.76;96601.06;5067426;28;20203;-71
2022/06/23 01:05:41;;;;;;;2.23;1.90;;;;;;;23.59;36.44;96602.06;5068139;28;20234;-71
2022/06/23 01:08:21;;;;;;;2.17;1.70;;;;;;;23.53;37.01;96593.94;5068381;28;20250;-71
2022/06/23 01:10:53;;;;;;;5.13;2.00;;;;;;;23.52;37.23;96582.53;5067262;28;20264;-72
2022/06/23 01:13:43;;;;;;;3.30;2.20;;;;;;;23.45;37.26;96589.47;5068509;28;20206;-70
2022/06/23 01:16:24;;;;;;;4.17;2.00;;;;;;;23.38;37.23;96585.78;5067374;28;20597;-72
2022/06/23 01:19:42;;;;;;;4.57;1.80;;;;;;;23.38;37.03;96594.56;5067215;28;20240;-71
2022/06/23 01:22:31;;;;;;;3.70;2.00;;;;;;;23.39;36.80;96601.47;5051209;28;20639;-72
2022/06/23 01:25:36;;;;;;;3.60;2.07;;;;;;;23.53;36.80;96594.78;5067766;28;20203;-72
2022/06/23 01:28:23;;;;;;;2.80;1.60;;;;;;;23.58;37.03;96608.31;4984916;28;20625;-72
2022/06/23 01:31:10;;;;;;;3.00;1.70;;;;;;;23.51;36.39;96617.06;5062927;28;20235;-72
2022/06/23 01:33:59;;;;;;;2.47;1.97;;;;;;;23.46;36.94;96599.03;5067706;28;20203;-72
2022/06/23 01:36:32;;;;;;;2.47;1.40;;;;;;;23.45;36.46;96592.91;5066756;28;20197;-72
2022/06/23 01:39:03;;;;;;;2.00;1.60;;;;;;;23.43;36.89;96589.59;5067971;28;20203;-72
2022/06/23 01:41:41;;;;;;;3.70;1.93;;;;;;;23.40;36.62;96599.66;5066831;28;20685;-72
2022/06/23 01:44:26;;;;;;;7.63;2.00;;;;;;;23.29;37.03;96591.97;5067780;28;20198;-71
2022/06/23 01:46:57;;;;;;;2.10;1.50;;;;;;;23.40;36.70;96578.53;5067831;28;20199;-72
2022/06/23 01:49:30;;;;;;;2.70;1.70;;;;;;;23.34;36.66;96579.16;5066126;28;20234;-72
2022/06/23 01:52:11;;;;;;;3.13;1.87;;;;;;;23.35;37.12;96586.09;5067692;28;20207;-72
2022/06/23 01:54:41;;;;;;;4.33;1.90;;;;;;;23.47;37.04;96592.78;5066271;28;20350;-72
2022/06/23 01:57:38;;;;;;;2.07;1.80;;;;;;;23.42;37.52;96600.34;5066411;28;20677;-72
2022/06/23 02:00:31;;;;;;;2.63;1.80;;;;;;;23.48;37.34;96594.41;5065515;28;20207;-71
2022/06/23 02:03:19;;;;;;;1.93;1.63;;;;;;;23.66;36.71;96581.91;5062425;28;20642;-72
2022/06/23 02:06:02;;;;;;;2.73;1.70;;;;;;;23.54;37.03;96577.91;5067459;28;20198;-72
2022/06/23 02:08:32;;;;;;;3.07;1.87;;;;;;;23.53;37.84;96570.97;5067528;28;20192;-71
2022/06/23 02:11:06;;;;;;;5.37;1.80;;;;;;;23.56;38.26;96577.72;5066041;28;20293;-72
2022/06/23 02:13:42;;;;;;;4.30;2.10;;;;;;;23.43;38.59;96579.03;5049669;28;20196;-71
2022/06/23 02:16:40;;;;;;;2.57;1.77;;;;;;;23.24;39.92;96578.44;5066132;28;20210;-72
2022/06/23 02:19:28;;;;;;;2.00;1.80;;;;;;;23.18;39.84;96597.56;5063473;28;20285;-72
2022/06/23 02:22:08;;;;;;;2.33;1.90;;;;;;;23.23;39.83;96579.41;5067625;28;20223;-72
2022/06/23 02:24:45;;;;;;;2.30;1.70;;;;;;;23.07;39.57;96553.75;5065983;28;20228;-72
2022/06/23 02:27:44;;;;;;;4.10;1.77;;;;;;;23.13;39.84;96565.50;5067117;28;20711;-71
2022/06/23 02:30:24;;;;;;;3.13;1.80;;;;;;;23.26;39.13;96564.09;5067338;28;20283;-72
2022/06/23 02:32:53;;;;;;;3.50;1.90;;;;;;;23.16;39.82;96578.41;5066193;28;20199;-72
2022/06/23 02:35:31;;;;;;;2.63;2.20;;;;;;;23.24;39.02;96586.38;5067354;28;20194;-71
2022/06/23 02:38:03;;;;;;;5.20;1.60;;;;;;;23.24;38.76;96575.78;5066257;28;20605;-72
2022/06/23 02:40:30;;;;;;;3.60;1.90;;;;;;;23.11;38.37;96585.97;5066740;28;20196;-71
2022/06/23 02:43:02;;;;;;;4.17;2.03;;;;;;;23.16;37.71;96588.97;5067442;28;20199;-72
2022/06/23 02:45:45;;;;;;;5.37;1.80;;;;;;;23.15;37.64;96571.44;5065782;28;20205;-72
2022/06/23 02:48:28;;;;;;;4.03;1.73;;;;;;;23.36;36.40;96574.53;5067076;28;20710;-71
2022/06/23 02:51:17;;;;;;;5.70;1.90;;;;;;;23.51;35.44;96574.75;5066458;28;20608;-71
2022/06/23 02:54:09;;;;;;;3.17;1.80;;;;;;;23.56;35.04;96565.34;5066124;28;20195;-71
2022/06/23 02:56:59;;;;;;;2.27;1.57;;;;;;;23.80;34.18;96586.56;5066994;28;20203;-71
2022/06/23 02:59:40;;;;;;;2.33;1.40;;;;;;;23.87;34.45;96584.94;5055791;28;20188;-72
2022/06/23 03:02:14;;;;;;;2.67;1.57;;;;;;;23.92;33.88;96597.66;5066181;28;20208;-72
2022/06/23 03:04:50;;;;;;;3.63;1.60;;;;;;;23.95;33.21;96584.94;5066892;28;20195;-71
2022/06/23 03:07:23;;;;;;;2.00;1.20;;;;;;;23.97;33.46;96601.47;5065520;28;20191;-71
2022/06/23 03:10:09;;;;;;;2.90;1.60;;;;;;;23.85;33.14;96596.66;5069850;28;20227;-72
2022/06/23 03:12:47;;;;;;;2.80;1.50;;;;;;;23.88;33.66;96585.75;5069876;28;20238;-72
2022/06/23 03:15:24;;;;;;;2.87;1.53;;;;;;;23.68;34.55;96590.50;5069335;28;20194;-71
2022/06/23 03:18:00;;;;;;;1.93;1.70;;;;;;;23.73;34.40;96592.66;5070455;28;21525;-72
2022/06/23 03:20:46;;;;;;;3.87;2.53;;;;;;;23.45;34.79;96598.19;5069218;28;20211;-71
2022/06/23 03:23:41;;;;;;;2.67;1.80;;;;;;;23.39;35.72;96598.00;5070144;28;20240;-70
2022/06/23 03:26:25;;;;;;;2.00;1.53;;;;;;;23.19;35.58;96605.34;5070189;28;20224;-71
2022/06/23 03:29:07;;;;;;;2.53;1.60;;;;;;;23.16;36.16;96599.53;5068968;28;20193;-70
2022/06/23 03:31:43;;;;;;;2.60;1.70;;;;;;;23.05;36.73;96605.94;5070263;28;20200;-70
2022/06/23 03:34:29;;;;;;;2.43;1.80;;;;;;;22.95;37.59;96609.66;5085823;28;20190;-70
2022/06/23 03:37:01;;;;;;;5.20;1.50;;;;;;;23.03;37.90;96612.34;5089239;28;20210;-70
2022/06/23 03:42:40;;;;;;;2.60;1.70;;;;;;;23.15;37.89;96624.28;5037689;28;20211;-70
2022/06/23 03:45:45;;;;;;;2.57;1.80;;;;;;;23.21;37.24;96628.94;5089401;28;20223;-69
2022/06/23 03:48:18;;;;;;;2.83;1.83;;;;;;;23.32;37.48;96647.22;5037952;28;20187;-70
2022/06/23 03:51:05;;;;;;;3.70;1.70;;;;;;;23.30;37.22;96638.59;5088018;28;20223;-70
2022/06/23 03:53:39;;;;;;;3.60;1.97;;;;;;;23.30;37.28;96651.78;5089513;28;20182;-70
2022/06/23 03:56:14;;;;;;;3.90;1.77;;;;;;;23.35;37.38;96646.88;5081747;28;20682;-69
2022/06/23 03:59:00;;;;;;;4.47;1.90;;;;;;;23.30;37.58;96660.56;5074439;28;20253;-70
2022/06/23 04:01:38;;;;;;;4.60;2.00;;;;;;;23.14;38.20;96657.00;5068522;28;20650;-70
2022/06/23 04:04:19;;;;;;;1.73;1.63;;;;;;;23.05;38.10;96665.84;5083839;28;20216;-70
2022/06/23 04:06:51;;;;;;;2.97;1.80;;;;;;;22.90;38.51;96664.75;5069730;28;20215;-71
2022/06/23 04:09:32;;;;;;;3.47;1.77;;;;;;;22.87;38.53;96657.16;5089441;28;20661;-71
2022/06/23 04:12:14;;;;;;;5.83;2.10;;;;;;;22.90;38.42;96662.13;5078457;28;20209;-70
2022/06/23 04:14:50;;;;;;;3.73;1.80;;;;;;;22.84;38.71;96649.53;5075384;28;20212;-71
2022/06/23 04:17:21;;;;;;;3.10;2.20;;;;;;;22.87;38.84;96658.00;5068464;28;20244;-71
2022/06/23 04:20:00;;;;;;;2.20;1.97;;;;;;;22.84;39.09;96657.44;5067618;28;20264;-71
2022/06/23 04:22:45;;;;;;;4.30;1.73;;;;;;;22.91;39.66;96647.94;5069160;28;20292;-71
2022/06/23 04:25:23;;;;;;;4.03;2.03;;;;;;;22.79;39.11;96633.34;5067794;28;20676;-70
2022/06/23 04:27:59;;;;;;;4.07;1.80;;;;;;;22.75;39.68;96659.19;5069290;28;20194;-71
2022/06/23 04:30:25;;;;;;;3.70;2.03;;;;;;;22.79;40.64;96657.94;5069021;28;20243;-71
2022/06/23 04:32:55;;;;;;;3.07;2.00;;;;;;;22.90;39.77;96643.63;5067594;28;20187;-70
2022/06/23 04:35:50;;;;;;;4.33;1.93;;;;;;;23.19;40.18;96649.41;5068879;28;20198;-71
2022/06/23 04:38:21;;;;;;;6.10;2.80;;;;;;;23.39;40.62;96662.28;5064479;28;20643;-71
2022/06/23 04:40:59;;;;;;;3.10;2.80;;;;;;;23.29;44.30;96663.34;5068766;28;20508;-72
2022/06/23 04:43:45;;;;;;;9.53;4.33;;;;;;;23.22;45.11;96662.31;5068206;28;20227;-70
2022/06/23 04:46:37;;;;;;;9.77;3.13;;;;;;;23.18;45.62;96655.69;5067471;28;20195;-71
2022/06/23 04:49:18;;;;;;;13.43;7.27;;;;;;;23.22;45.67;96657.03;5068871;28;20186;-71
2022/06/23 04:51:52;;;;;;;7.60;4.83;;;;;;;23.30;45.58;96665.84;5049634;28;20658;-71
2022/06/23 04:54:25;;;;;;;6.87;3.60;;;;;;;23.16;45.79;96663.75;5067354;28;20213;-71
2022/06/23 04:56:57;;;;;;;6.90;4.07;;;;;;;22.73;46.49;96663.00;5068235;28;20209;-71
2022/06/23 04:59:44;;;;;;;11.33;4.57;;;;;;;22.63;46.52;96671.00;5067188;28;20229;-71
2022/06/23 05:02:37;;;;;;;7.17;3.90;;;;;;;22.88;46.03;96674.63;5068746;28;20674;-71
2022/06/23 05:05:21;;;;;;;8.80;4.33;;;;;;;22.70;46.13;96676.50;5055513;28;20227;-71
2022/06/23 05:07:53;;;;;;;10.23;4.10;;;;;;;22.77;46.04;96688.13;5066752;28;20201;-71
2022/06/23 05:10:34;;;;;;;11.20;4.30;;;;;;;22.59;45.17;96686.31;5067897;28;20242;-71
2022/06/23 05:13:06;;;;;;;6.17;3.27;;;;;;;22.65;44.06;96685.69;5067121;28;20200;-72
2022/06/23 05:15:41;;;;;;;3.77;2.40;;;;;;;22.35;45.37;96691.38;5067866;28;20669;-71
2022/06/23 05:18:25;;;;;;;8.83;4.73;;;;;;;22.36;45.72;96693.00;5067953;28;20258;-70
2022/06/23 05:21:17;;;;;;;7.93;2.37;;;;;;;22.49;44.55;96677.63;5066655;28;20188;-71
2022/06/23 05:23:59;;;;;;;6.73;2.70;;;;;;;22.67;45.68;96684.75;5067657;28;20242;-69
2022/06/23 05:26:30;;;;;;;8.03;3.67;;;;;;;23.02;45.27;96684.66;5067296;28;20249;-72
2022/06/23 05:29:01;;;;;;;5.10;3.00;;;;;;;23.19;43.27;96691.69;5066901;28;20195;-72
2022/06/23 05:31:33;;;;;;;5.47;4.23;;;;;;;23.21;43.17;96681.78;5067498;28;20719;-72
2022/06/23 05:34:08;;;;;;;10.57;3.33;;;;;;;23.36;42.00;96696.13;5066929;28;20640;-72
2022/06/23 05:36:46;;;;;;;6.53;2.90;;;;;;;23.37;41.19;96697.78;5049904;28;20216;-72
2022/06/23 05:39:28;;;;;;;5.80;2.90;;;;;;;23.32;41.84;96700.91;5066971;28;20196;-72
2022/06/23 05:41:58;;;;;;;4.33;3.00;;;;;;;23.41;41.60;96688.56;5066382;28;20205;-72
2022/06/23 05:44:31;;;;;;;4.70;2.43;;;;;;;23.32;41.03;96690.34;5067906;28;20258;-72
2022/06/23 05:47:00;;;;;;;7.30;2.80;;;;;;;23.31;41.51;96701.00;5066222;28;20584;-73
2022/06/23 05:49:43;;;;;;;16.17;4.80;;;;;;;23.29;42.83;96685.31;5067489;28;20252;-72
2022/06/23 05:52:15;;;;;;;8.57;3.93;;;;;;;23.54;41.94;96696.03;5066453;28;20205;-72
2022/06/23 05:55:06;;;;;;;6.70;3.57;;;;;;;23.55;42.72;96685.31;5066457;28;20687;-72
2022/06/23 05:57:39;;;;;;;6.13;3.47;;;;;;;23.57;42.17;96685.16;5067663;28;20213;-71
2022/06/23 06:00:14;;;;;;;7.00;3.27;;;;;;;23.50;42.21;96684.97;5047815;28;20200;-72
2022/06/23 06:02:54;;;;;;;8.37;3.03;;;;;;;23.69;41.82;96684.72;5067076;28;20221;-71
2022/06/23 06:05:27;;;;;;;10.17;3.53;;;;;;;23.66;40.98;96687.66;5067094;28;20291;-72
2022/06/23 06:07:55;;;;;;;5.80;3.10;;;;;;;23.73;40.74;96687.88;5066315;28;20192;-72
2022/06/23 06:10:25;;;;;;;10.47;4.00;;;;;;;23.85;41.93;96707.75;5049190;28;20243;-71
2022/06/23 06:12:54;;;;;;;4.37;3.27;;;;;;;23.82;41.40;96703.59;5066108;28;20224;-70
2022/06/23 06:15:29;;;;;;;8.07;3.10;;;;;;;23.79;42.37;96703.94;5067218;28;20201;-72
2022/06/23 06:18:16;;;;;;;14.10;3.50;;;;;;;24.03;43.96;96696.09;5066038;28;20269;-71
2022/06/23 06:20:44;;;;;;;10.67;4.10;;;;;;;24.07;43.70;96699.28;5066542;28;20242;-70
2022/06/23 06:23:32;;;;;;;14.20;5.60;;;;;;;24.09;45.60;96706.03;5015829;28;20247;-70
2022/06/23 06:26:00;;;;;;;18.07;6.90;;;;;;;24.05;45.24;96704.69;5047942;28;20766;-70
2022/06/23 06:28:32;;;;;;;9.03;3.40;;;;;;;23.87;45.15;96703.97;5066778;28;20917;-71
2022/06/23 06:31:23;;;;;;;12.10;3.83;;;;;;;23.88;45.63;96724.16;5066215;28;20218;-71
2022/06/23 06:34:02;;;;;;;9.90;4.23;;;;;;;23.85;45.71;96739.47;5065817;28;20194;-71
2022/06/23 06:36:42;;;;;;;10.13;3.50;;;;;;;23.60;46.43;96749.13;5067770;28;20213;-71
2022/06/23 06:39:17;;;;;;;11.47;3.60;;;;;;;23.81;46.05;96765.44;5065753;28;20720;-71
2022/06/23 06:41:49;;;;;;;7.97;3.53;;;;;;;23.66;46.18;96771.47;5066618;28;20193;-71
2022/06/23 06:44:18;;;;;;;7.90;3.93;;;;;;;23.53;46.21;96787.75;5068447;28;20196;-71
2022/06/23 06:46:46;;;;;;;6.73;2.90;;;;;;;23.22;46.28;96799.75;5069288;28;20185;-71
2022/06/23 06:49:17;;;;;;;7.43;2.97;;;;;;;23.20;46.42;96815.75;5070808;28;20200;-71
2022/06/23 06:51:46;;;;;;;10.83;3.47;;;;;;;23.15;47.09;96830.38;5069520;28;20652;-71
2022/06/23 06:54:21;;;;;;;9.00;3.40;;;;;;;23.21;47.49;96829.78;5052968;28;20198;-71
2022/06/23 06:56:53;;;;;;;7.63;3.50;;;;;;;23.34;47.90;96860.16;5070113;28;20211;-71
2022/06/23 06:59:51;;;;;;;6.43;3.87;;;;;;;23.22;47.45;96864.00;5036961;28;20625;-70
2022/06/23 07:02:24;;;;;;;10.90;5.60;;;;;;;23.28;50.86;96870.47;5072970;28;20292;-71
2022/06/23 07:05:09;;;;;;;9.27;5.10;;;;;;;23.07;49.95;96888.44;5070929;28;20180;-70
2022/06/23 07:07:43;;;;;;;4.00;2.40;;;;;;;22.71;45.85;96881.47;5074262;28;20190;-70
2022/06/23 07:10:27;;;;;;;7.03;2.67;;;;;;;22.72;47.17;96897.16;5076940;28;20203;-70
2022/06/23 07:13:00;;;;;;;4.80;2.37;;;;;;;22.56;47.71;96886.38;5056921;28;20229;-70
2022/06/23 07:15:44;;;;;;;4.70;2.50;;;;;;;22.40;46.36;96894.94;5076793;28;20206;-70
2022/06/23 07:18:44;;;;;;;4.50;2.70;;;;;;;22.16;48.26;96897.25;5056733;28;20269;-71
2022/06/23 07:21:19;;;;;;;5.13;2.70;;;;;;;21.79;49.05;96899.00;5070828;28;20203;-71
2022/06/23 07:24:11;;;;;;;4.37;2.43;;;;;;;21.97;49.82;96910.50;5071459;28;20270;-71
2022/06/23 07:26:42;;;;;;;4.67;2.50;;;;;;;21.94;50.28;96905.53;5069344;28;20201;-71
2022/06/23 07:29:26;;;;;;;5.80;2.30;;;;;;;21.82;50.75;96896.13;5052740;28;20191;-71
2022/06/23 07:32:18;;;;;;;3.63;2.30;;;;;;;21.52;51.28;96888.38;5054320;28;20379;-71
2022/06/23 07:34:59;;;;;;;2.93;2.17;;;;;;;21.41;51.49;96888.53;5068803;28;20209;-70
2022/06/23 07:37:45;;;;;;;8.80;4.20;;;;;;;21.08;55.57;96862.63;5056137;28;20200;-71
2022/06/23 07:40:14;;;;;;;7.87;3.00;;;;;;;21.11;56.39;96844.75;5070464;28;20212;-71
2022/06/23 07:43:11;;;;;;;4.53;2.90;;;;;;;21.03;54.20;96816.47;5069012;28;20197;-71
2022/06/23 07:46:07;;;;;;;6.40;2.70;;;;;;;20.77;57.67;96822.41;5070610;28;20208;-71
2022/06/23 07:48:36;;;;;;;5.80;3.50;;;;;;;20.57;58.02;96795.22;5069255;28;20201;-72
2022/06/23 07:51:06;;;;;;;4.03;2.83;;;;;;;20.12;60.27;96809.78;5051368;28;20229;-71
2022/06/23 07:53:37;;;;;;;6.07;3.17;;;;;;;20.07;60.65;96786.50;5034893;28;20763;-72
2022/06/23 07:56:06;;;;;;;5.33;3.67;;;;;;;20.17;61.63;96789.19;5068193;28;20196;-71
2022/06/23 07:58:36;;;;;;;7.10;4.20;;;;;;;19.94;64.64;96783.31;5069632;28;20771;-71
2022/06/23 08:01:12;;;;;;;8.07;3.90;;;;;;;20.03;64.30;96758.03;5068009;28;20197;-70
2022/06/23 08:04:06;;;;;;;6.87;3.70;;;;;;;20.28;61.14;96736.50;5069269;28;20211;-72
2022/06/23 08:06:35;;;;;;;5.33;3.10;;;;;;;20.84;60.98;96739.25;5055537;28;20203;-71
2022/06/23 08:09:24;;;;;;;7.30;4.07;;;;;;;21.32;63.11;96755.00;5067742;28;20201;-71
2022/06/23 08:17:52;;;;;;;6.43;4.47;;;;;;;21.80;60.60;96766.22;5052094;28;20634;-71
2022/06/23 08:20:26;;;;;;;5.37;3.77;;;;;;;21.72;59.15;96759.03;5069975;28;20278;-71
2022/06/23 08:22:54;;;;;;;4.03;2.73;;;;;;;21.71;58.85;96756.53;5067824;28;20304;-71
2022/06/23 08:25:22;;;;;;;3.77;3.13;;;;;;;21.47;60.34;96738.63;5051712;28;20199;-72
2022/06/23 08:27:52;;;;;;;4.47;3.30;;;;;;;21.65;60.63;96768.50;5068916;28;20639;-72
2022/06/23 08:30:25;;;;;;;5.97;4.20;;;;;;;21.33;62.80;96773.28;5068485;28;20281;-71
2022/06/23 08:32:54;;;;;;;7.00;4.53;;;;;;;21.39;62.51;96762.19;5051237;28;20645;-71
2022/06/23 08:35:38;;;;;;;6.27;4.37;;;;;;;21.69;65.55;96779.56;5066939;28;21142;-71
2022/06/23 08:38:21;;;;;;;8.80;5.37;;;;;;;21.97;63.64;96796.28;5069116;28;20201;-71
2022/06/23 08:41:12;;;;;;;13.53;5.10;;;;;;;22.10;64.29;96804.69;5068215;28;20289;-71
2022/06/23 08:43:43;;;;;;;6.13;4.93;;;;;;;22.06;64.57;96817.34;5066949;28;20209;-71
2022/06/23 08:46:38;;;;;;;6.73;3.93;;;;;;;22.10;62.42;96821.34;5068251;28;20545;-72
2022/06/23 08:49:28;;;;;;;7.37;3.60;;;;;;;22.02;63.93;96831.78;5067392;28;20267;-71
2022/06/23 08:52:30;;;;;;;7.30;5.57;;;;;;;22.25;63.04;96840.16;5066995;28;20266;-71
2022/06/23 08:55:29;;;;;;;9.07;5.57;;;;;;;22.39;62.43;96848.41;5068570;28;20197;-71
2022/06/23 08:58:28;;;;;;;13.23;7.63;;;;;;;22.40;63.38;96844.78;5067806;28;20257;-71
2022/06/23 09:01:13;;;;;;;13.57;9.10;;;;;;;22.30;64.96;96835.25;5067127;28;20637;-71
2022/06/23 09:04:04;;;;;;;12.87;6.77;;;;;;;21.95;63.71;96830.69;5068006;28;20226;-71
2022/06/23 09:06:53;;;;;;;10.43;5.37;;;;;;;22.19;64.11;96825.75;5066823;28;20237;-71
2022/06/23 09:09:38;;;;;;;6.40;4.90;;;;;;;22.27;63.77;96804.75;5066530;28;20788;-71
2022/06/23 09:12:29;;;;;;;9.67;5.37;;;;;;;22.08;64.48;96791.66;5067683;28;20794;-71
2022/06/23 09:15:53;;;;;;;8.73;4.57;;;;;;;22.15;64.02;96792.72;5066782;28;20685;-71
2022/06/23 09:18:48;;;;;;;5.83;3.47;;;;;;;22.30;61.31;96791.22;5021895;28;20249;-72
2022/06/23 09:21:42;;;;;;;4.63;4.10;;;;;;;22.02;63.27;96802.78;5049239;28;20218;-71
2022/06/23 09:24:14;;;;;;;4.30;3.57;;;;;;;22.21;62.69;96817.69;5066979;28;20237;-71
2022/06/23 09:27:11;;;;;;;6.30;4.67;;;;;;;22.22;63.07;96809.63;5066382;28;20246;-71
2022/06/23 09:30:00;;;;;;;8.70;6.67;;;;;;;22.36;64.05;96785.38;5059040;28;20309;-72
2022/06/23 09:32:35;;;;;;;9.27;5.67;;;;;;;22.52;61.93;96790.81;5066101;28;20277;-71
2022/06/23 09:35:11;;;;;;;6.20;3.90;;;;;;;22.10;61.25;96800.25;5065987;28;20227;-71
2022/06/23 09:38:09;;;;;;;7.17;4.60;;;;;;;22.04;62.72;96813.19;5066584;28;20199;-71
2022/06/23 09:41:08;;;;;;;7.13;4.70;;;;;;;22.05;64.43;96818.31;5065920;28;20497;-70
2022/06/23 09:43:53;;;;;;;5.33;4.23;;;;;;;22.18;64.64;96829.34;5065563;28;20695;-71
2022/06/23 09:46:39;;;;;;;7.87;4.20;;;;;;;22.15;65.21;96834.09;5016154;28;20199;-70
2022/06/23 09:49:33;;;;;;;7.30;3.67;;;;;;;22.22;62.82;96830.72;5066563;28;20199;-71
2022/06/23 09:52:19;;;;;;;4.40;3.40;;;;;;;22.18;63.11;96818.81;5066850;28;20234;-71
2022/06/23 09:55:03;;;;;;;6.73;3.63;;;;;;;22.17;63.25;96816.31;5067122;28;20210;-71
2022/06/23 09:57:52;;;;;;;4.70;3.20;;;;;;;22.27;62.97;96802.09;5047687;28;20198;-71
2022/06/23 10:00:51;;;;;;;5.27;3.30;;;;;;;22.39;63.17;96784.25;5066895;28;20289;-71
2022/06/23 10:03:58;;;;;;;4.40;4.00;;;;;;;22.77;62.21;96780.53;5066812;28;20199;-71
2022/06/23 10:06:38;;;;;;;8.93;7.03;;;;;;;23.01;62.80;96789.50;5066115;28;20225;-71
2022/06/23 10:09:31;;;;;;;6.83;4.10;;;;;;;22.56;63.04;96786.09;5066994;28;20213;-71
2022/06/23 10:12:25;;;;;;;6.03;3.97;;;;;;;22.51;61.21;96797.06;5036032;28;20642;-70
2022/06/23 10:15:18;;;;;;;5.43;4.57;;;;;;;22.35;62.29;96793.44;5047291;28;20252;-72
2022/06/23 10:17:54;;;;;;;6.37;4.30;;;;;;;22.37;61.95;96792.31;5048552;28;20199;-71
2022/06/23 10:20:29;;;;;;;4.80;4.20;;;;;;;22.46;62.27;96783.47;5070524;28;20550;-70
2022/06/23 10:23:14;;;;;;;7.13;4.70;;;;;;;22.49;64.20;96793.75;5070015;28;20296;-70
2022/06/23 10:25:41;;;;;;;5.53;3.57;;;;;;;22.64;60.84;96800.22;5071108;28;20201;-70
2022/06/23 10:28:38;;;;;;;3.47;3.00;;;;;;;22.70;57.03;96798.78;5070081;28;20192;-71
2022/06/23 10:31:29;;;;;;;5.97;3.93;;;;;;;23.02;58.31;96787.69;5052521;28;20571;-71
2022/06/23 10:34:12;;;;;;;4.33;3.40;;;;;;;23.05;58.28;96788.22;5058782;28;20266;-71
2022/06/23 10:36:51;;;;;;;5.47;3.93;;;;;;;23.00;58.23;96789.66;5051436;28;20671;-71
2022/06/23 10:39:42;;;;;;;5.43;3.43;;;;;;;23.27;58.05;96782.44;5070370;28;20195;-72
2022/06/23 10:42:13;;;;;;;5.13;3.80;;;;;;;23.32;58.56;96789.94;5053128;28;20699;-72
2022/06/23 10:45:07;;;;;;;6.43;3.93;;;;;;;23.22;58.43;96795.28;5035243;28;20204;-71
2022/06/23 10:48:02;;;;;;;6.60;4.57;;;;;;;23.01;57.62;96786.03;5053153;28;20195;-71
2022/06/23 10:50:57;;;;;;;4.13;3.63;;;;;;;22.83;58.22;96778.13;5053107;28;20661;-71
2022/06/23 10:53:43;;;;;;;4.13;3.70;;;;;;;23.20;57.13;96775.28;5070371;28;20192;-71
2022/06/23 10:56:40;;;;;;;4.33;3.47;;;;;;;23.45;56.19;96774.50;5071013;28;20207;-71
2022/06/23 10:59:36;;;;;;;4.37;3.60;;;;;;;23.65;55.66;96775.94;5070822;28;20285;-71
2022/06/23 11:02:12;;;;;;;6.37;4.27;;;;;;;24.02;55.75;96775.59;5068814;28;20252;-70
2022/06/23 11:04:58;;;;;;;3.97;3.67;;;;;;;24.09;55.20;96784.63;5070181;28;20689;-70
2022/06/23 11:07:40;;;;;;;5.30;3.37;;;;;;;23.98;52.09;96780.41;5069601;28;20200;-70
2022/06/23 11:10:26;;;;;;;4.13;3.17;;;;;;;23.74;52.27;96768.88;5069057;28;20266;-70
2022/06/23 11:13:02;;;;;;;5.20;4.63;;;;;;;23.85;52.48;96765.94;5070403;28;20243;-73
2022/06/23 11:15:58;;;;;;;9.37;4.40;;;;;;;23.94;53.47;96771.13;5068753;28;20196;-70
2022/06/23 11:18:43;;;;;;;4.57;4.00;;;;;;;23.68;51.84;96772.97;5069567;28;20256;-70
2022/06/23 11:21:22;;;;;;;6.37;4.10;;;;;;;23.77;52.08;96766.75;5069708;28;20208;-72
2022/06/23 11:24:04;;;;;;;6.10;4.13;;;;;;;23.97;52.90;96769.94;5068755;28;20286;-71
2022/06/23 11:26:50;;;;;;;5.50;3.40;;;;;;;23.79;50.79;96762.13;5051771;28;20534;-71
2022/06/23 11:29:41;;;;;;;5.27;3.37;;;;;;;23.70;50.84;96756.97;5069319;28;20566;-70
2022/06/23 11:32:42;;;;;;;4.27;3.20;;;;;;;23.57;51.22;96762.66;5068401;28;20256;-71
2022/06/23 11:35:30;;;;;;;3.97;3.13;;;;;;;23.61;51.99;96758.72;5069536;28;20195;-71
2022/06/23 11:38:37;;;;;;;10.30;3.60;;;;;;;23.81;52.56;96768.06;5069147;28;20533;-70
2022/06/23 11:41:17;;;;;;;9.20;3.60;;;;;;;24.12;52.41;96756.00;5068020;28;20495;-71
2022/06/23 11:44:12;;;;;;;5.40;3.23;;;;;;;24.18;51.69;96763.31;5069167;28;20228;-71
2022/06/23 11:46:45;;;;;;;4.67;2.97;;;;;;;24.27;50.37;96758.88;5069487;28;20194;-71
2022/06/23 11:49:38;;;;;;;4.00;3.00;;;;;;;24.25;50.34;96744.97;5068198;28;20721;-71
2022/06/23 11:52:31;;;;;;;5.00;3.47;;;;;;;24.40;49.82;96766.34;5069507;28;20232;-71
2022/06/23 11:55:05;;;;;;;5.50;3.47;;;;;;;24.17;50.38;96769.56;5069293;28;20229;-71
2022/06/23 11:57:41;;;;;;;4.43;3.37;;;;;;;24.09;51.08;96766.91;5068178;28;20201;-71
2022/06/23 12:00:14;;;;;;;7.50;3.40;;;;;;;24.17;50.64;96756.34;5069136;28;20207;-71
2022/06/23 12:03:12;;;;;;;6.93;3.93;;;;;;;24.28;51.27;96754.41;5067506;28;20201;-71
2022/06/23 12:05:47;;;;;;;6.77;4.70;;;;;;;24.21;51.24;96736.50;5068683;28;20584;-71
2022/06/23 12:08:44;;;;;;;7.43;3.77;;;;;;;24.36;50.90;96751.78;5068737;28;20623;-70
2022/06/23 12:11:12;;;;;;;4.33;2.87;;;;;;;24.36;50.71;96749.13;5067336;28;20289;-71
2022/06/23 12:13:41;;;;;;;7.73;3.53;;;;;;;24.54;50.72;96747.16;5050867;28;20200;-70
2022/06/23 12:16:09;;;;;;;9.87;3.77;;;;;;;24.67;50.03;96734.25;5049557;28;20222;-71
2022/06/23 12:18:44;;;;;;;6.00;3.80;;;;;;;24.59;51.14;96744.84;5068858;28;20260;-70
2022/06/23 12:21:14;;;;;;;7.63;4.53;;;;;;;24.86;51.28;96739.28;5068633;28;20203;-70
2022/06/23 12:23:50;;;;;;;8.07;4.40;;;;;;;24.88;51.38;96751.38;5067643;28;20249;-71
2022/06/23 12:26:25;;;;;;;6.20;4.27;;;;;;;24.77;52.16;96738.44;5068461;28;20206;-71
2022/06/23 12:29:10;;;;;;;8.93;4.47;;;;;;;24.82;52.99;96757.34;5067290;28;20666;-71
2022/06/23 12:32:12;;;;;;;5.80;3.73;;;;;;;24.57;53.58;96752.13;5068151;28;20219;-71
2022/06/23 12:35:04;;;;;;;5.57;3.67;;;;;;;24.10;54.76;96747.41;5068168;28;20657;-71
2022/06/23 12:37:42;;;;;;;4.43;3.40;;;;;;;23.93;55.09;96758.03;5048364;28;20229;-71
2022/06/23 12:40:25;;;;;;;2.70;2.07;;;;;;;23.14;57.47;96755.56;5068064;28;20262;-72
2022/06/23 12:43:19;;;;;;;3.33;2.17;;;;;;;23.09;58.48;96760.50;5049846;28;20287;-72
2022/06/23 12:46:03;;;;;;;5.17;2.83;;;;;;;23.26;58.13;96749.06;5066669;28;20208;-72
2022/06/23 12:48:55;;;;;;;2.40;2.00;;;;;;;23.25;58.07;96755.31;5068384;28;20216;-70